createdAt,value
2022-08-19T00:01:57.299Z,4.13
2022-08-19T00:04:49.048Z,5.88
2022-08-19T00:07:36.119Z,4.65
2022-08-19T00:10:23.265Z,3.47
2022-08-19T00:13:10.616Z,4.63
2022-08-19T00:15:59.740Z,4.28
2022-08-19T00:18:46.953Z,5.45
2022-08-19T00:21:37.421Z,6.60
2022-08-19T00:24:25.636Z,4.20
2022-08-19T00:27:25.235Z,4.05
2022-08-19T00:30:13.882Z,4.07
2022-08-19T00:33:01.003Z,4.63
2022-08-19T00:35:48.090Z,5.03
2022-08-19T00:38:43.989Z,4.55
2022-08-19T00:41:31.051Z,4.70
2022-08-19T00:44:26.838Z,7.00
2022-08-19T00:47:14.656Z,3.78
2022-08-19T00:50:04.387Z,5.78
2022-08-19T00:52:52.678Z,5.32
2022-08-19T00:55:40.622Z,3.95
2022-08-19T00:58:31.318Z,5.07
2022-08-19T01:01:18.347Z,4.85
2022-08-19T01:04:05.529Z,4.45
2022-08-19T01:06:52.486Z,5.32
2022-08-19T01:09:39.641Z,3.15
2022-08-19T01:12:26.618Z,5.15
2022-08-19T01:15:16.824Z,3.72
2022-08-19T01:18:09.154Z,3.88
2022-08-19T01:21:02.603Z,5.03
2022-08-19T01:23:49.682Z,3.65
2022-08-19T01:26:44.731Z,3.20
2022-08-19T01:29:33.881Z,3.50
2022-08-19T01:32:33.077Z,3.03
2022-08-19T01:35:24.593Z,4.82
2022-08-19T01:38:25.089Z,4.10
2022-08-19T01:41:12.784Z,5.50
2022-08-19T01:44:17.788Z,4.22
2022-08-19T01:47:06.247Z,4.72
2022-08-19T01:49:53.278Z,3.70
2022-08-19T01:52:43.035Z,3.80
2022-08-19T01:55:30.162Z,4.75
2022-08-19T01:58:21.927Z,5.55
2022-08-19T02:01:09.690Z,3.17
2022-08-19T02:03:57.101Z,3.45
2022-08-19T02:06:45.340Z,4.55
2022-08-19T02:09:33.526Z,3.00
2022-08-19T02:12:21.856Z,2.90
2022-08-19T02:15:09.189Z,3.80
2022-08-19T02:17:56.395Z,5.10
2022-08-19T02:20:44.707Z,5.03
2022-08-19T02:23:33.714Z,3.03
2022-08-19T02:26:20.855Z,4.13
2022-08-19T02:29:07.884Z,3.30
2022-08-19T02:31:54.797Z,5.00
2022-08-19T02:34:42.056Z,3.30
2022-08-19T02:37:47.793Z,4.13
2022-08-19T02:40:35.618Z,3.63
2022-08-19T02:43:23.315Z,4.55
2022-08-19T02:46:22.069Z,3.08
2022-08-19T02:49:09.103Z,2.42
2022-08-19T02:51:56.279Z,4.35
2022-08-19T02:54:43.455Z,2.78
2022-08-19T02:57:32.922Z,3.90
2022-08-19T03:00:19.897Z,3.63
2022-08-19T03:03:07.072Z,2.53
2022-08-19T03:06:12.035Z,3.53
2022-08-19T03:08:59.485Z,3.40
2022-08-19T03:11:46.981Z,2.50
2022-08-19T03:14:37.783Z,2.10
2022-08-19T03:17:24.766Z,3.83
2022-08-19T03:20:11.964Z,2.63
2022-08-19T03:22:58.944Z,4.50
2022-08-19T03:25:58.097Z,3.53
2022-08-19T03:28:57.769Z,2.30
2022-08-19T03:31:52.040Z,2.72
2022-08-19T03:34:40.002Z,3.05
2022-08-19T03:37:27.279Z,2.88
2022-08-19T03:40:16.370Z,3.17
2022-08-19T03:43:04.140Z,3.53
2022-08-19T03:46:01.795Z,4.00
2022-08-19T03:48:54.915Z,3.80
2022-08-19T03:51:43.098Z,2.17
2022-08-19T03:54:30.362Z,5.30
2022-08-19T03:57:17.283Z,3.13
2022-08-19T04:00:13.477Z,4.25
2022-08-19T04:03:01.907Z,3.92
2022-08-19T04:05:49.078Z,2.80
2022-08-19T04:08:35.988Z,3.83
2022-08-19T04:11:42.672Z,9.13
2022-08-19T04:14:31.641Z,3.17
2022-08-19T04:17:18.754Z,2.45
2022-08-19T04:20:06.925Z,2.13
2022-08-19T04:22:54.508Z,2.40
2022-08-19T04:25:44.433Z,4.28
2022-08-19T04:28:31.478Z,5.10
2022-08-19T04:31:28.844Z,2.58
2022-08-19T04:34:18.664Z,3.70
2022-08-19T04:37:12.749Z,3.15
2022-08-19T04:40:18.719Z,3.45
2022-08-19T04:43:05.640Z,4.35
2022-08-19T04:45:52.854Z,4.45
2022-08-19T04:48:49.458Z,5.55
2022-08-19T04:51:37.953Z,4.07
2022-08-19T04:54:38.702Z,4.80
2022-08-19T04:57:27.338Z,5.28
2022-08-19T05:00:14.720Z,2.78
2022-08-19T05:03:03.274Z,7.18
2022-08-19T05:05:54.866Z,5.45
2022-08-19T05:08:44.400Z,6.00
2022-08-19T05:11:34.613Z,4.47
2022-08-19T05:14:22.878Z,4.55
2022-08-19T05:17:27.090Z,6.43
2022-08-19T05:20:33.002Z,4.00
2022-08-19T05:23:22.845Z,4.10
2022-08-19T05:26:12.094Z,6.10
2022-08-19T05:28:59.007Z,4.15
2022-08-19T05:31:50.375Z,5.20
2022-08-19T05:34:39.222Z,4.68
2022-08-19T05:37:28.694Z,5.22
2022-08-19T05:40:15.795Z,7.80
2022-08-19T05:43:04.686Z,4.47
2022-08-19T05:45:51.755Z,5.35
2022-08-19T05:48:38.799Z,7.45
2022-08-19T05:51:29.152Z,5.32
2022-08-19T05:54:16.640Z,8.23
2022-08-19T05:57:03.955Z,6.05
2022-08-19T05:59:57.718Z,6.57
2022-08-19T06:02:45.419Z,5.05
2022-08-19T06:05:33.010Z,5.43
2022-08-19T06:08:35.091Z,8.80
2022-08-19T06:11:23.683Z,6.80
2022-08-19T06:14:16.695Z,7.18
2022-08-19T06:17:07.032Z,9.43
2022-08-19T06:19:54.362Z,8.93
2022-08-19T06:22:46.904Z,7.53
2022-08-19T06:25:33.863Z,9.15
2022-08-19T06:28:22.383Z,6.65
2022-08-19T06:31:10.660Z,11.68
2022-08-19T06:33:58.019Z,7.43
2022-08-19T06:36:49.229Z,7.60
2022-08-19T06:39:39.814Z,7.13
2022-08-19T06:42:26.889Z,7.65
2022-08-19T06:45:14.093Z,9.20
2022-08-19T06:48:00.987Z,8.65
2022-08-19T06:50:49.634Z,9.20
2022-08-19T06:53:37.056Z,13.02
2022-08-19T06:56:32.203Z,11.98
2022-08-19T06:59:23.434Z,7.88
2022-08-19T07:02:10.723Z,9.23
2022-08-19T07:05:00.873Z,9.90
2022-08-19T07:07:47.935Z,10.93
2022-08-19T07:10:36.080Z,8.50
2022-08-19T07:13:23.301Z,11.77
2022-08-19T07:16:14.593Z,13.70
2022-08-19T07:19:11.614Z,12.55
2022-08-19T07:22:05.775Z,10.00
2022-08-19T07:24:53.794Z,10.82
2022-08-19T07:27:40.734Z,9.40
2022-08-19T07:30:27.805Z,7.93
2022-08-19T07:33:14.847Z,11.20
2022-08-19T07:36:01.999Z,10.38
2022-08-19T07:38:51.459Z,8.68
2022-08-19T07:41:39.106Z,13.68
2022-08-19T07:44:26.062Z,12.18
2022-08-19T07:47:58.424Z,11.05
2022-08-19T07:50:21.934Z,12.15
2022-08-19T07:53:08.994Z,12.75
2022-08-19T07:55:56.421Z,10.40
2022-08-19T07:58:46.774Z,11.32
2022-08-19T08:01:33.789Z,11.50
2022-08-19T08:04:48.573Z,10.70
2022-08-19T08:07:54.316Z,13.20
2022-08-19T08:10:41.672Z,11.68
2022-08-19T08:13:29.214Z,10.75
2022-08-19T08:16:16.370Z,12.35
2022-08-19T08:19:07.215Z,11.75
2022-08-19T08:22:02.888Z,11.00
2022-08-19T08:24:50.239Z,11.77
2022-08-19T08:27:40.708Z,11.68
2022-08-19T08:30:31.033Z,14.45
2022-08-19T08:33:33.245Z,15.65
2022-08-19T08:36:21.430Z,14.18
2022-08-19T08:39:16.874Z,15.63
2022-08-19T08:42:36.099Z,15.55
2022-08-19T08:45:24.494Z,13.70
2022-08-19T08:48:47.598Z,14.23
2022-08-19T08:51:48.996Z,15.77
2022-08-19T08:54:55.323Z,13.77
2022-08-19T08:57:52.286Z,12.25
2022-08-19T09:00:43.619Z,12.15
2022-08-19T09:03:31.495Z,14.52
2022-08-19T09:06:34.788Z,12.88
2022-08-19T09:09:33.615Z,13.35
2022-08-19T09:12:51.973Z,12.70
2022-08-19T09:15:54.246Z,15.77
2022-08-19T09:18:48.133Z,17.20
2022-08-19T09:21:39.489Z,12.95
2022-08-19T09:24:31.173Z,18.77
2022-08-19T09:27:18.918Z,14.80
2022-08-19T09:30:08.540Z,14.35
2022-08-19T09:32:56.623Z,15.57
2022-08-19T09:35:50.014Z,16.25
2022-08-19T09:38:43.583Z,16.05
2022-08-19T09:41:31.143Z,19.98
2022-08-19T09:44:18.873Z,20.00
2022-08-19T09:47:06.412Z,18.90
2022-08-19T09:49:53.477Z,16.08
2022-08-19T09:52:40.588Z,15.02
2022-08-19T09:55:45.162Z,16.02
2022-08-19T09:58:33.290Z,15.60
2022-08-19T10:01:26.556Z,14.93
2022-08-19T10:04:19.825Z,16.63
2022-08-19T10:07:07.703Z,15.73
2022-08-19T10:09:55.222Z,14.80
2022-08-19T10:12:48.818Z,14.90
2022-08-19T10:15:47.477Z,16.42
2022-08-19T10:18:36.214Z,13.98
2022-08-19T10:21:28.954Z,12.40
2022-08-19T10:24:20.181Z,11.25
2022-08-19T10:27:07.151Z,12.98
2022-08-19T10:29:56.123Z,14.48
2022-08-19T10:32:47.011Z,10.27
2022-08-19T10:35:42.487Z,13.27
2022-08-19T10:38:31.591Z,15.68
2022-08-19T10:41:24.211Z,11.43
2022-08-19T10:44:13.906Z,10.48
2022-08-19T10:47:01.145Z,9.02
2022-08-19T10:50:08.899Z,8.80
2022-08-19T10:53:04.479Z,8.57
2022-08-19T10:56:15.312Z,7.25
2022-08-19T10:59:04.113Z,7.30
2022-08-19T11:01:52.606Z,8.05
2022-08-19T11:04:42.890Z,7.13
2022-08-19T11:07:29.960Z,6.70
2022-08-19T11:10:21.750Z,7.28
2022-08-19T11:13:09.531Z,12.18
2022-08-19T11:16:06.594Z,10.18
2022-08-19T11:18:59.372Z,7.63
2022-08-19T11:21:49.532Z,6.65
2022-08-19T11:24:37.728Z,7.00
2022-08-19T11:27:24.993Z,8.40
2022-08-19T11:30:13.905Z,7.20
2022-08-19T11:35:50.327Z,8.70
2022-08-19T11:38:38.113Z,8.00
2022-08-19T11:41:25.493Z,9.48
2022-08-19T11:44:15.212Z,6.85
2022-08-19T11:47:09.297Z,7.03
2022-08-19T11:49:56.904Z,7.63
2022-08-19T11:52:45.400Z,8.18
2022-08-19T11:55:32.602Z,9.80
2022-08-19T11:58:20.378Z,7.35
2022-08-19T12:01:17.145Z,7.45
2022-08-19T12:04:07.747Z,7.78
2022-08-19T12:06:55.067Z,7.72
2022-08-19T12:09:42.841Z,10.52
2022-08-19T12:12:30.122Z,8.65
2022-08-19T12:15:17.237Z,8.95
2022-08-19T12:18:05.395Z,8.70
2022-08-19T12:20:54.092Z,7.57
2022-08-19T12:23:42.418Z,7.78
2022-08-19T12:26:30.611Z,7.53
2022-08-19T12:29:21.572Z,9.10
2022-08-19T12:32:12.046Z,9.30
2022-08-19T12:34:59.504Z,6.85
2022-08-19T12:37:56.662Z,7.38
2022-08-19T12:40:49.163Z,7.57
2022-08-19T12:43:37.599Z,8.95
2022-08-19T12:46:25.395Z,10.52
2022-08-19T12:49:16.794Z,7.13
2022-08-19T12:52:23.127Z,8.02
2022-08-19T12:55:11.645Z,7.43
2022-08-19T12:57:58.839Z,6.75
2022-08-19T13:00:45.803Z,7.20
2022-08-19T13:03:32.852Z,6.18
2022-08-19T13:06:20.447Z,7.57
2022-08-19T13:09:07.682Z,6.20
2022-08-19T13:11:54.688Z,5.60
2022-08-19T13:14:41.963Z,6.57
2022-08-19T13:17:29.155Z,5.05
2022-08-19T13:20:18.458Z,7.03
2022-08-19T13:23:05.557Z,4.75
2022-08-19T13:26:00.138Z,4.65
2022-08-19T13:29:06.120Z,5.80
2022-08-19T13:32:11.705Z,4.75
2022-08-19T13:35:05.253Z,5.60
2022-08-19T13:37:52.924Z,3.80
2022-08-19T13:40:41.607Z,5.40
2022-08-19T13:43:28.641Z,4.30
2022-08-19T13:46:16.231Z,6.90
2022-08-19T13:49:03.260Z,5.05
2022-08-19T13:51:50.197Z,10.02
2022-08-19T13:54:37.179Z,6.88
2022-08-19T13:57:24.155Z,4.88
2022-08-19T14:00:15.280Z,4.35
2022-08-19T14:03:06.235Z,4.75
2022-08-19T14:05:55.752Z,6.07
2022-08-19T14:08:46.011Z,4.65
2022-08-19T14:11:33.587Z,3.10
2022-08-19T14:14:20.600Z,3.97
2022-08-19T14:17:08.473Z,6.25
2022-08-19T14:20:00.227Z,4.53
2022-08-19T14:22:57.394Z,4.30
2022-08-19T14:25:45.447Z,4.47
2022-08-19T14:28:32.470Z,2.63
2022-08-19T14:31:21.031Z,2.47
2022-08-19T14:34:08.094Z,3.47
2022-08-19T14:36:55.105Z,3.20
2022-08-19T14:39:43.065Z,4.70
2022-08-19T14:42:30.127Z,2.97
2022-08-19T14:45:17.110Z,5.93
2022-08-19T14:48:05.398Z,3.15
2022-08-19T14:50:53.338Z,5.43
2022-08-19T14:53:40.415Z,1.60
2022-08-19T14:56:30.220Z,3.00
2022-08-19T14:59:17.523Z,1.73
2022-08-19T15:02:33.575Z,8.88
2022-08-19T15:05:12.491Z,1.85
2022-08-19T15:08:04.343Z,2.53
2022-08-19T15:10:52.039Z,2.10
2022-08-19T15:13:40.727Z,3.78
2022-08-19T15:16:28.012Z,3.20
2022-08-19T15:19:15.031Z,1.38
2022-08-19T15:22:02.659Z,3.10
2022-08-19T15:24:49.737Z,2.90
2022-08-19T15:27:37.645Z,2.53
2022-08-19T15:30:28.147Z,2.08
2022-08-19T15:33:15.397Z,1.67
2022-08-19T15:36:02.531Z,2.33
2022-08-19T15:38:52.151Z,1.67
2022-08-19T15:41:39.703Z,1.95
2022-08-19T15:44:27.560Z,2.17
2022-08-19T15:47:15.026Z,2.05
2022-08-19T15:50:10.719Z,3.25
2022-08-19T15:53:01.457Z,2.40
2022-08-19T15:55:49.464Z,2.05
2022-08-19T15:58:55.165Z,1.73
2022-08-19T16:02:00.661Z,2.63
2022-08-19T16:05:06.149Z,3.42
2022-08-19T16:07:53.388Z,3.03
2022-08-19T16:10:40.621Z,2.33
2022-08-19T16:13:27.647Z,1.48
2022-08-19T16:16:14.714Z,2.65
2022-08-19T16:19:03.956Z,2.53
2022-08-19T16:21:53.105Z,2.10
2022-08-19T16:24:40.070Z,1.77
2022-08-19T16:27:27.178Z,3.42
2022-08-19T16:30:14.156Z,1.20
2022-08-19T16:33:01.156Z,1.45
2022-08-19T16:36:00.446Z,2.22
2022-08-19T16:38:54.983Z,1.50
2022-08-19T16:41:42.995Z,3.10
2022-08-19T16:44:30.180Z,1.20
2022-08-19T16:47:18.116Z,0.93
2022-08-19T16:50:07.677Z,1.27
2022-08-19T16:52:54.656Z,1.05
2022-08-19T16:55:41.702Z,1.27
2022-08-19T16:58:29.931Z,3.03
2022-08-19T17:01:17.561Z,0.80
2022-08-19T17:04:04.650Z,1.35
2022-08-19T17:06:51.737Z,2.45
2022-08-19T17:09:38.710Z,1.10
2022-08-19T17:12:30.203Z,0.82
2022-08-19T17:15:19.398Z,1.67
2022-08-19T17:18:08.559Z,0.88
2022-08-19T17:20:56.926Z,1.15
2022-08-19T17:23:44.320Z,1.27
2022-08-19T17:26:31.672Z,1.45
2022-08-19T17:29:18.667Z,0.95
2022-08-19T17:32:07.756Z,1.30
2022-08-19T17:34:54.899Z,1.27
2022-08-19T17:37:42.696Z,3.25
2022-08-19T17:40:29.925Z,1.90
2022-08-19T17:43:19.077Z,1.60
2022-08-19T17:46:20.631Z,1.58
2022-08-19T17:49:07.684Z,1.63
2022-08-19T17:51:54.664Z,1.88
2022-08-19T17:54:41.656Z,1.45
2022-08-19T17:57:28.623Z,3.65
2022-08-19T18:00:16.414Z,1.42
2022-08-19T18:03:05.972Z,1.67
2022-08-19T18:08:40.706Z,1.17
2022-08-19T18:11:27.756Z,1.38
2022-08-19T18:14:15.497Z,4.40
2022-08-19T18:17:17.252Z,3.97
2022-08-19T18:20:12.092Z,2.10
2022-08-19T18:23:45.439Z,2.95
2022-08-19T18:26:08.232Z,1.65
2022-08-19T18:28:55.274Z,1.05
2022-08-19T18:31:43.829Z,2.58
2022-08-19T18:34:30.875Z,1.63
2022-08-19T18:37:17.917Z,2.42
2022-08-19T18:40:26.267Z,2.30
2022-08-19T18:43:13.966Z,3.95
2022-08-19T18:46:19.560Z,5.30
2022-08-19T18:49:09.383Z,1.27
2022-08-19T18:54:47.009Z,3.15
2022-08-19T18:57:34.160Z,3.65
2022-08-19T19:00:21.303Z,2.38
2022-08-19T19:03:11.342Z,2.45
2022-08-19T19:05:59.043Z,3.00
2022-08-19T19:08:48.395Z,2.83
2022-08-19T19:11:40.193Z,3.33
2022-08-19T19:14:48.619Z,2.50
2022-08-19T19:17:37.010Z,1.65
2022-08-19T19:20:25.942Z,2.53
2022-08-19T19:23:24.297Z,4.45
2022-08-19T19:26:12.583Z,3.80
2022-08-19T19:29:00.093Z,2.95
2022-08-19T19:31:48.137Z,2.95
2022-08-19T19:34:38.312Z,2.90
2022-08-19T19:37:25.607Z,4.80
2022-08-19T19:40:12.746Z,4.43
2022-08-19T19:43:00.283Z,4.40
2022-08-19T19:45:48.769Z,3.67
2022-08-19T19:48:36.117Z,3.50
2022-08-19T19:51:25.186Z,2.78
2022-08-19T19:54:17.269Z,3.70
2022-08-19T19:57:05.840Z,3.92
2022-08-19T19:59:54.332Z,3.60
2022-08-19T20:02:46.656Z,4.68
2022-08-19T20:08:42.424Z,4.63
2022-08-19T20:11:36.023Z,3.70
2022-08-19T20:14:32.699Z,4.50
2022-08-19T20:17:20.801Z,4.05
2022-08-19T20:20:10.426Z,3.22
2022-08-19T20:22:57.715Z,3.38
2022-08-19T20:25:44.756Z,3.55
2022-08-19T20:28:31.964Z,5.25
2022-08-19T20:31:19.770Z,3.25
2022-08-19T20:34:07.423Z,4.07
2022-08-19T20:36:54.458Z,3.03
2022-08-19T20:39:41.566Z,2.35
2022-08-19T20:42:28.642Z,3.40
2022-08-19T20:45:18.239Z,2.83
2022-08-19T20:48:20.553Z,4.68
2022-08-19T20:51:07.656Z,3.85
2022-08-19T20:53:55.203Z,3.95
2022-08-19T20:56:42.196Z,3.35
2022-08-19T20:59:29.533Z,3.28
2022-08-19T21:02:16.627Z,1.52
2022-08-19T21:05:04.508Z,3.42
2022-08-19T21:07:51.543Z,3.13
2022-08-19T21:10:42.378Z,3.03
2022-08-19T21:13:29.527Z,2.83
2022-08-19T21:16:16.601Z,2.17
2022-08-19T21:19:04.623Z,2.53
2022-08-19T21:21:51.833Z,2.78
2022-08-19T21:24:38.863Z,3.20
2022-08-19T21:27:25.878Z,2.35
2022-08-19T21:30:13.281Z,2.50
2022-08-19T21:33:01.484Z,1.85
2022-08-19T21:35:48.817Z,2.25
2022-08-19T21:38:39.024Z,2.75
2022-08-19T21:41:26.098Z,3.15
2022-08-19T21:44:13.107Z,3.75
2022-08-19T21:47:00.090Z,4.38
2022-08-19T21:49:47.050Z,2.78
2022-08-19T21:52:34.298Z,2.33
2022-08-19T21:55:21.482Z,3.25
2022-08-19T21:58:08.487Z,3.28
2022-08-19T22:00:55.551Z,2.63
2022-08-19T22:03:43.326Z,3.70
2022-08-19T22:06:30.294Z,4.15
2022-08-19T22:09:17.242Z,5.25
2022-08-19T22:12:12.119Z,4.50
2022-08-19T22:15:00.026Z,4.10
2022-08-19T22:17:47.843Z,4.25
2022-08-19T22:20:34.830Z,2.72
2022-08-19T22:23:22.128Z,5.35
2022-08-19T22:26:09.201Z,2.45
2022-08-19T22:28:56.203Z,4.85
2022-08-19T22:31:44.672Z,4.82
2022-08-19T22:34:31.690Z,4.28
2022-08-19T22:37:18.874Z,3.33
2022-08-19T22:40:06.528Z,3.85
2022-08-19T22:43:00.030Z,5.47
2022-08-19T22:45:48.735Z,5.78
2022-08-19T22:48:35.689Z,3.50
2022-08-19T22:51:41.489Z,5.20
2022-08-19T22:54:28.509Z,3.10
2022-08-19T22:57:16.282Z,4.18
2022-08-19T23:00:06.406Z,2.88
2022-08-19T23:02:55.095Z,2.50
2022-08-19T23:05:42.056Z,3.15
2022-08-19T23:08:29.367Z,3.33
2022-08-19T23:11:16.328Z,2.88
2022-08-19T23:14:06.276Z,2.58
2022-08-19T23:16:58.833Z,3.00
2022-08-19T23:19:46.280Z,2.90
2022-08-19T23:22:33.616Z,1.90
2022-08-19T23:25:24.498Z,5.30
2022-08-19T23:28:30.092Z,2.22
2022-08-19T23:31:17.259Z,2.85
2022-08-19T23:34:04.541Z,1.75
2022-08-19T23:36:51.654Z,1.90
2022-08-19T23:39:38.784Z,2.30
2022-08-19T23:42:28.808Z,1.45
2022-08-19T23:45:23.720Z,2.65
2022-08-19T23:48:11.879Z,2.10
2022-08-19T23:51:01.594Z,3.10
2022-08-19T23:53:48.653Z,1.55
2022-08-19T23:56:35.569Z,1.45
2022-08-19T23:59:22.695Z,2.90
